Accueil
METAR-TAF:

METAR-TAF

Aéroports :

Aéroport de Lahr

Lahr, Allemagne

latitude: 48-22-09N, longitude: 007-49-40E, altitude: 156 m

Observation

Le bulletin a été fait il y a 35 minutes, à 19:50 UTC
Vent 2 kt de nord
Température 14°C
Humidité 82%
Pression 1030 hPa
Visibilité 10 km ou plus
Nuages épars à une hauteur de 3800 ft

METAR: EDTL 061950Z 01002KT 9999 SCT038 14/11 Q1030

Heure: 22:25 (20:25 UTC)

Prévision

Le bulletin a été fait il y a 3 heures et 25 minutes, à 17:00 UTC
Prévision valable du 06 à 18 UTC au 06 à 24 UTC
Vent 3 kt de direction variable
Visibilité 10 km ou plus
pas de nuages en-dessous de 1500 mètres et pas de cumulonimbus.

TAF: EDTL 061700Z 0618/0624 VRB03KT CAVOK

Observations et prévisions météorologiques de plus de 4000 aéroports (messages METAR et TAF).

Les stations disponibles sont représentées par des disques jaunes et rouges sur la carte.

Passer la souris dessus pour voir le nom de la station.

Cliquer dessus pour voir les observations et prévisions météorologiques.

Pour changer de carte: cliquez sur les boutons verts avec une croix noire pour zoomer, sur le bouton vert avec un tiret pour effectuer un zoom arrière, ou sur les flèches vertes pour les cartes adjacentes.


METAR-TAF: